createdAt,value
2022-07-26T00:01:21.289Z,31.90
2022-07-26T00:03:49.795Z,32.10
2022-07-26T00:06:18.248Z,32.70
2022-07-26T00:08:47.502Z,33.10
2022-07-26T00:11:15.822Z,34.80
2022-07-26T00:13:44.075Z,36.50
2022-07-26T00:16:14.023Z,36.40
2022-07-26T00:18:42.463Z,36.80
2022-07-26T00:21:11.582Z,37.80
2022-07-26T00:23:40.147Z,38.30
2022-07-26T00:26:08.537Z,38.70
2022-07-26T00:28:36.843Z,38.70
2022-07-26T00:31:05.652Z,38.80
2022-07-26T00:33:35.266Z,38.80
2022-07-26T00:36:03.483Z,39.30
2022-07-26T00:38:31.842Z,40.10
2022-07-26T00:41:00.266Z,40.50
2022-07-26T00:43:28.528Z,40.50
2022-07-26T00:45:56.814Z,40.70
2022-07-26T00:48:25.219Z,39.40
2022-07-26T00:50:55.813Z,39.90
2022-07-26T00:53:24.991Z,41.20
2022-07-26T00:55:53.752Z,42.00
2022-07-26T00:58:21.991Z,42.50
2022-07-26T01:00:50.276Z,43.00
2022-07-26T01:03:18.574Z,43.30
2022-07-26T01:05:46.762Z,43.00
2022-07-26T01:08:16.331Z,43.40
2022-07-26T01:10:44.882Z,43.20
2022-07-26T01:13:13.252Z,42.60
2022-07-26T01:15:41.567Z,42.50
2022-07-26T01:18:09.871Z,41.80
2022-07-26T01:20:38.056Z,42.00
2022-07-26T01:23:07.888Z,41.60
2022-07-26T01:25:43.316Z,42.00
2022-07-26T01:28:20.051Z,42.20
2022-07-26T01:30:49.199Z,41.90
2022-07-26T01:33:17.707Z,42.40
2022-07-26T01:35:45.917Z,42.30
2022-07-26T01:38:15.614Z,42.20
2022-07-26T01:40:43.919Z,42.20
2022-07-26T01:43:12.166Z,42.70
2022-07-26T01:45:40.445Z,42.70
2022-07-26T01:48:09.643Z,43.00
2022-07-26T01:50:39.239Z,43.10
2022-07-26T01:53:07.456Z,43.70
2022-07-26T01:55:37.243Z,44.00
2022-07-26T01:58:06.048Z,44.20
2022-07-26T02:00:34.918Z,44.50
2022-07-26T02:03:03.284Z,44.90
2022-07-26T02:05:31.559Z,45.10
2022-07-26T02:08:00.019Z,45.70
2022-07-26T02:10:49.665Z,46.10
2022-07-26T02:13:19.436Z,46.80
2022-07-26T02:15:47.800Z,46.10
2022-07-26T02:18:16.106Z,46.10
2022-07-26T02:20:44.464Z,46.10
2022-07-26T02:23:13.176Z,46.10
2022-07-26T02:25:41.335Z,46.00
2022-07-26T02:28:09.615Z,46.00
2022-07-26T02:30:39.385Z,46.00
2022-07-26T02:33:07.685Z,46.00
2022-07-26T02:35:36.060Z,46.20
2022-07-26T02:38:04.812Z,46.00
2022-07-26T02:40:33.222Z,46.30
2022-07-26T02:43:01.590Z,46.70
2022-07-26T02:45:29.887Z,46.30
2022-07-26T02:47:59.527Z,46.60
2022-07-26T02:50:28.671Z,46.90
2022-07-26T02:52:57.076Z,47.40
2022-07-26T02:55:26.372Z,47.90
2022-07-26T02:57:54.712Z,48.10
2022-07-26T03:00:25.613Z,48.20
2022-07-26T03:02:54.138Z,48.40
2022-07-26T03:05:23.812Z,48.40
2022-07-26T03:07:52.146Z,49.10
2022-07-26T03:10:20.386Z,48.80
2022-07-26T03:12:48.552Z,48.80
2022-07-26T03:15:16.766Z,49.30
2022-07-26T03:17:45.017Z,49.50
2022-07-26T03:20:14.137Z,49.00
2022-07-26T03:22:43.830Z,49.70
2022-07-26T03:25:12.347Z,50.20
2022-07-26T03:27:40.585Z,50.20
2022-07-26T03:30:10.774Z,50.10
2022-07-26T03:32:38.981Z,50.10
2022-07-26T03:35:08.185Z,50.10
2022-07-26T03:37:45.615Z,50.00
2022-07-26T03:40:16.450Z,50.00
2022-07-26T03:42:45.332Z,50.50
2022-07-26T03:45:14.186Z,50.50
2022-07-26T03:47:42.475Z,51.20
2022-07-26T03:50:13.635Z,51.20
2022-07-26T03:52:42.073Z,51.30
2022-07-26T03:55:28.573Z,51.80
2022-07-26T03:57:58.201Z,51.70
2022-07-26T04:00:26.525Z,52.00
2022-07-26T04:02:54.835Z,52.30
2022-07-26T04:05:23.457Z,52.40
2022-07-26T04:07:53.251Z,52.90
2022-07-26T04:10:22.069Z,53.10
2022-07-26T04:12:50.321Z,53.00
2022-07-26T04:15:21.303Z,53.00
2022-07-26T04:17:49.786Z,52.50
2022-07-26T04:20:18.431Z,52.10
2022-07-26T04:22:46.646Z,52.40
2022-07-26T04:25:15.228Z,52.30
2022-07-26T04:27:43.833Z,51.70
2022-07-26T04:30:15.449Z,51.40
2022-07-26T04:32:46.712Z,51.90
2022-07-26T04:35:16.632Z,51.70
2022-07-26T04:37:45.764Z,52.10
2022-07-26T04:40:17.925Z,51.90
2022-07-26T04:42:49.833Z,52.40
2022-07-26T04:45:18.034Z,52.60
2022-07-26T04:47:50.749Z,52.80
2022-07-26T04:50:19.294Z,52.50
2022-07-26T04:52:47.517Z,52.60
2022-07-26T04:55:15.760Z,52.60
2022-07-26T04:57:43.962Z,52.60
2022-07-26T05:00:22.546Z,51.80
2022-07-26T05:02:55.023Z,51.20
2022-07-26T05:05:23.816Z,50.70
2022-07-26T05:07:53.878Z,51.10
2022-07-26T05:10:22.998Z,51.20
2022-07-26T05:12:51.674Z,51.80
2022-07-26T05:15:19.939Z,51.20
2022-07-26T05:17:48.461Z,51.10
2022-07-26T05:20:18.342Z,50.50
2022-07-26T05:22:47.075Z,48.60
2022-07-26T05:25:15.359Z,48.20
2022-07-26T05:27:43.544Z,47.80
2022-07-26T05:30:12.645Z,47.70
2022-07-26T05:32:40.886Z,46.70
2022-07-26T05:35:09.974Z,46.80
2022-07-26T05:37:39.616Z,46.20
2022-07-26T05:40:09.280Z,45.80
2022-07-26T05:42:37.591Z,45.80
2022-07-26T05:45:06.771Z,44.70
2022-07-26T05:47:35.036Z,43.00
2022-07-26T05:50:03.376Z,43.00
2022-07-26T05:52:31.687Z,43.20
2022-07-26T05:55:01.384Z,43.00
2022-07-26T05:57:29.694Z,43.00
2022-07-26T05:59:57.920Z,43.00
2022-07-26T06:02:26.189Z,43.20
2022-07-26T06:04:54.538Z,42.60
2022-07-26T06:07:22.847Z,41.80
2022-07-26T06:09:51.091Z,41.30
2022-07-26T06:12:20.641Z,40.50
2022-07-26T06:14:49.045Z,39.30
2022-07-26T06:17:17.393Z,38.70
2022-07-26T06:19:47.762Z,32.60
2022-07-26T06:22:16.659Z,30.30
2022-07-26T06:24:44.857Z,28.40
2022-07-26T06:27:13.109Z,28.30
2022-07-26T06:29:42.755Z,27.20
2022-07-26T06:32:11.074Z,26.10
2022-07-26T06:34:39.363Z,25.00
2022-07-26T06:37:07.574Z,24.80
2022-07-26T06:39:35.799Z,23.60
2022-07-26T06:42:04.089Z,23.10
2022-07-26T06:44:32.343Z,23.60
2022-07-26T06:47:01.913Z,23.50
2022-07-26T06:49:30.280Z,23.10
2022-07-26T06:51:58.676Z,21.30
2022-07-26T06:54:26.877Z,18.40
2022-07-26T06:56:55.097Z,17.50
2022-07-26T06:59:23.302Z,16.50
2022-07-26T07:01:59.816Z,16.20
2022-07-26T07:04:30.784Z,16.70
2022-07-26T07:07:04.530Z,16.30
2022-07-26T07:09:34.049Z,9.80
2022-07-26T07:12:09.367Z,9.60
2022-07-26T07:14:38.557Z,10.20
2022-07-26T07:17:13.034Z,5.90
2022-07-26T07:19:43.595Z,5.80
2022-07-26T07:22:12.832Z,6.70
2022-07-26T07:24:41.567Z,6.50
2022-07-26T07:27:10.673Z,3.00
2022-07-26T07:29:41.326Z,1.00
2022-07-26T07:32:18.242Z,1.00
2022-07-26T07:34:49.139Z,1.00
2022-07-26T07:37:17.455Z,1.00
2022-07-26T07:39:48.690Z,1.00
2022-07-26T07:42:18.256Z,1.00
2022-07-26T07:44:46.578Z,1.00
2022-07-26T07:47:15.266Z,1.00
2022-07-26T07:49:43.637Z,1.00
2022-07-26T07:52:13.222Z,1.00
2022-07-26T07:54:42.140Z,1.00
2022-07-26T07:57:11.003Z,1.00
2022-07-26T07:59:42.764Z,1.00
2022-07-26T08:02:12.814Z,1.00
2022-07-26T08:04:41.270Z,1.00
2022-07-26T08:07:09.614Z,1.00
2022-07-26T08:09:43.160Z,1.00
2022-07-26T08:12:12.303Z,1.00
2022-07-26T08:14:41.458Z,1.00
2022-07-26T08:17:09.894Z,1.00
2022-07-26T08:19:42.206Z,1.00
2022-07-26T08:22:11.310Z,1.00
2022-07-26T08:24:40.876Z,1.00
2022-07-26T08:27:09.231Z,1.00
2022-07-26T08:29:37.478Z,1.00
2022-07-26T08:32:06.685Z,1.00
2022-07-26T08:34:34.954Z,1.00
2022-07-26T08:37:18.688Z,1.00
2022-07-26T08:39:48.582Z,1.00
2022-07-26T08:42:17.050Z,1.00
2022-07-26T08:44:51.212Z,1.00
2022-07-26T08:47:35.388Z,1.00
2022-07-26T08:50:10.043Z,1.00
2022-07-26T08:52:41.069Z,1.00
2022-07-26T08:55:11.621Z,1.00
2022-07-26T08:57:39.855Z,1.00
2022-07-26T09:00:22.631Z,1.00
2022-07-26T09:02:50.854Z,1.00
2022-07-26T09:05:20.390Z,1.00
2022-07-26T09:07:48.697Z,1.00
2022-07-26T09:10:18.276Z,1.00
2022-07-26T09:12:46.556Z,1.00
2022-07-26T09:15:22.347Z,1.00
2022-07-26T09:17:55.678Z,1.00
2022-07-26T09:20:26.140Z,1.00
2022-07-26T09:23:02.642Z,1.00
2022-07-26T09:25:33.756Z,1.00
2022-07-26T09:28:02.291Z,1.00
2022-07-26T09:30:31.677Z,1.00
2022-07-26T09:33:03.125Z,1.00
2022-07-26T09:35:51.079Z,1.00
2022-07-26T09:38:20.328Z,1.00
2022-07-26T09:40:50.844Z,1.00
2022-07-26T09:43:19.695Z,1.00
2022-07-26T09:46:04.874Z,1.00
2022-07-26T09:48:59.323Z,1.00
2022-07-26T09:51:37.472Z,1.00
2022-07-26T09:54:06.045Z,1.00
2022-07-26T09:56:45.895Z,1.00
2022-07-26T09:59:15.271Z,1.00
2022-07-26T10:01:43.852Z,1.00
2022-07-26T10:04:12.384Z,1.00
2022-07-26T10:06:41.093Z,1.00
2022-07-26T10:09:09.438Z,1.00
2022-07-26T10:11:42.608Z,1.00
2022-07-26T10:14:55.208Z,1.00
2022-07-26T10:17:47.222Z,1.00
2022-07-26T10:20:45.607Z,1.00
2022-07-26T10:23:42.882Z,1.00
2022-07-26T10:26:14.146Z,1.00
2022-07-26T10:28:42.930Z,1.00
2022-07-26T10:31:31.811Z,1.00
2022-07-26T10:34:01.542Z,1.00
2022-07-26T10:36:35.983Z,1.00
2022-07-26T10:39:13.359Z,1.00
2022-07-26T10:41:46.577Z,1.00
2022-07-26T10:44:23.702Z,1.00
2022-07-26T10:47:19.532Z,1.00
2022-07-26T10:49:58.163Z,1.00
2022-07-26T10:52:28.129Z,1.00
2022-07-26T10:55:09.907Z,1.00
2022-07-26T10:57:39.336Z,1.00
2022-07-26T11:00:23.214Z,1.00
2022-07-26T11:02:57.134Z,1.00
2022-07-26T11:05:28.883Z,1.00
2022-07-26T11:08:05.348Z,1.00
2022-07-26T11:10:35.292Z,1.00
2022-07-26T11:13:13.755Z,1.00
2022-07-26T11:15:45.271Z,1.00
2022-07-26T11:18:22.337Z,1.00
2022-07-26T11:20:53.489Z,1.00
2022-07-26T11:23:33.419Z,1.00
2022-07-26T11:26:11.869Z,1.00
2022-07-26T11:28:58.187Z,1.00
2022-07-26T11:31:50.604Z,1.00
2022-07-26T11:34:26.475Z,1.00
2022-07-26T11:36:56.655Z,1.00
2022-07-26T11:39:25.956Z,1.00
2022-07-26T11:41:58.526Z,1.00
2022-07-26T11:44:26.928Z,1.00
2022-07-26T11:46:56.082Z,1.00
2022-07-26T11:49:52.241Z,1.00
2022-07-26T11:52:15.398Z,1.00
2022-07-26T11:54:53.723Z,1.00
2022-07-26T11:57:22.198Z,1.00
2022-07-26T11:59:51.199Z,1.00
2022-07-26T12:02:19.427Z,1.00
2022-07-26T12:04:49.087Z,1.00
2022-07-26T12:07:18.814Z,1.00
2022-07-26T12:09:50.764Z,1.00
2022-07-26T12:12:21.927Z,1.00
2022-07-26T12:14:57.802Z,1.00
2022-07-26T12:17:26.027Z,1.00
2022-07-26T12:19:58.757Z,1.00
2022-07-26T12:22:27.506Z,1.00
2022-07-26T12:24:59.579Z,1.00
2022-07-26T12:27:29.441Z,1.00
2022-07-26T12:30:15.291Z,1.00
2022-07-26T12:32:44.310Z,1.00
2022-07-26T12:35:15.231Z,1.00
2022-07-26T12:37:51.416Z,1.00
2022-07-26T12:40:21.061Z,1.00
2022-07-26T12:43:00.733Z,1.00
2022-07-26T12:45:31.642Z,1.00
2022-07-26T12:48:00.969Z,1.00
2022-07-26T12:50:31.427Z,1.00
2022-07-26T12:53:01.798Z,1.00
2022-07-26T12:55:30.013Z,2.20
2022-07-26T12:57:58.433Z,1.00
2022-07-26T13:00:26.676Z,2.70
2022-07-26T13:02:57.350Z,3.70
2022-07-26T13:05:25.610Z,4.80
2022-07-26T13:07:55.567Z,4.40
2022-07-26T13:10:33.739Z,6.50
2022-07-26T13:13:02.677Z,5.90
2022-07-26T13:15:36.174Z,6.70
2022-07-26T13:18:08.420Z,5.70
2022-07-26T13:20:38.381Z,4.20
2022-07-26T13:23:11.607Z,3.30
2022-07-26T13:25:41.997Z,2.60
2022-07-26T13:28:11.347Z,1.20
2022-07-26T13:30:43.010Z,1.00
2022-07-26T13:33:11.682Z,1.00
2022-07-26T13:35:42.421Z,1.00
2022-07-26T13:38:12.079Z,1.00
2022-07-26T13:40:40.438Z,1.00
2022-07-26T13:43:08.680Z,1.00
2022-07-26T13:45:36.911Z,1.00
2022-07-26T13:48:05.612Z,1.00
2022-07-26T13:50:33.810Z,1.00
2022-07-26T13:53:02.262Z,1.00
2022-07-26T13:55:31.866Z,1.00
2022-07-26T13:58:00.007Z,1.00
2022-07-26T14:00:28.850Z,1.00
2022-07-26T14:02:58.829Z,1.00
2022-07-26T14:05:27.607Z,1.00
2022-07-26T14:07:55.910Z,1.00
2022-07-26T14:10:24.498Z,1.30
2022-07-26T14:12:54.444Z,1.00
2022-07-26T14:15:23.641Z,1.00
2022-07-26T14:17:52.426Z,1.00
2022-07-26T14:20:21.198Z,1.00
2022-07-26T14:22:54.038Z,1.00
2022-07-26T14:25:22.847Z,1.00
2022-07-26T14:27:52.904Z,1.00
2022-07-26T14:30:21.486Z,1.00
2022-07-26T14:32:49.905Z,1.00
2022-07-26T14:35:18.342Z,1.00
2022-07-26T14:37:46.622Z,1.00
2022-07-26T14:40:15.944Z,1.00
2022-07-26T14:42:44.266Z,1.00
2022-07-26T14:45:14.130Z,1.00
2022-07-26T14:47:42.431Z,1.00
2022-07-26T14:50:11.836Z,1.00
2022-07-26T14:52:40.602Z,1.00
2022-07-26T14:55:09.591Z,1.00
2022-07-26T14:57:39.654Z,1.00
2022-07-26T15:00:10.067Z,1.00
2022-07-26T15:02:41.213Z,1.00
2022-07-26T15:05:11.270Z,1.00
2022-07-26T15:07:39.619Z,1.00
2022-07-26T15:10:09.158Z,1.00
2022-07-26T15:12:37.669Z,1.00
2022-07-26T15:15:07.487Z,1.00
2022-07-26T15:17:36.233Z,1.00
2022-07-26T15:20:07.917Z,1.00
2022-07-26T15:22:36.310Z,1.00
2022-07-26T15:25:04.737Z,1.00
2022-07-26T15:27:33.081Z,1.00
2022-07-26T15:30:05.165Z,1.00
2022-07-26T15:32:36.353Z,1.00
2022-07-26T15:35:07.423Z,1.00
2022-07-26T15:37:43.698Z,1.00
2022-07-26T15:40:12.899Z,1.00
2022-07-26T15:42:42.909Z,1.00
2022-07-26T15:45:13.326Z,1.00
2022-07-26T15:48:08.122Z,1.00
2022-07-26T15:50:31.542Z,1.00
2022-07-26T15:52:59.793Z,1.00
2022-07-26T15:55:28.187Z,1.00
2022-07-26T15:57:56.421Z,1.00
2022-07-26T16:00:24.690Z,1.00
2022-07-26T16:02:53.166Z,1.00
2022-07-26T16:05:21.457Z,1.00
2022-07-26T16:07:51.248Z,1.00
2022-07-26T16:10:19.473Z,1.00
2022-07-26T16:12:48.079Z,1.00
2022-07-26T16:15:16.333Z,1.00
2022-07-26T16:17:44.723Z,1.00
2022-07-26T16:20:13.095Z,1.00
2022-07-26T16:22:42.018Z,1.00
2022-07-26T16:25:13.757Z,1.00
2022-07-26T16:27:43.348Z,1.00
2022-07-26T16:30:13.951Z,1.00
2022-07-26T16:32:42.238Z,1.00
2022-07-26T16:35:11.458Z,1.00
2022-07-26T16:37:39.869Z,1.00
2022-07-26T16:40:09.824Z,1.00
2022-07-26T16:42:39.471Z,1.00
2022-07-26T16:45:09.774Z,1.00
2022-07-26T16:47:38.016Z,1.00
2022-07-26T16:50:07.395Z,1.00
2022-07-26T16:52:35.674Z,1.00
2022-07-26T16:55:05.602Z,1.00
2022-07-26T16:57:33.847Z,1.00
2022-07-26T17:00:03.801Z,1.00
2022-07-26T17:02:32.103Z,1.00
2022-07-26T17:05:00.340Z,1.00
2022-07-26T17:07:28.554Z,1.00
2022-07-26T17:09:56.918Z,1.00
2022-07-26T17:12:25.315Z,1.00
2022-07-26T17:14:53.672Z,1.00
2022-07-26T17:17:23.891Z,1.00
2022-07-26T17:19:52.109Z,1.00
2022-07-26T17:22:20.418Z,1.00
2022-07-26T17:24:49.021Z,1.00
2022-07-26T17:27:17.488Z,1.00
2022-07-26T17:29:45.761Z,1.00
2022-07-26T17:32:14.025Z,1.00
2022-07-26T17:34:43.593Z,1.00
2022-07-26T17:37:12.590Z,1.00
2022-07-26T17:39:51.486Z,1.00
2022-07-26T17:42:22.253Z,1.00
2022-07-26T17:44:50.692Z,1.00
2022-07-26T17:47:28.821Z,1.00
2022-07-26T17:50:26.241Z,1.00
2022-07-26T17:52:49.897Z,1.00
2022-07-26T17:55:19.557Z,1.00
2022-07-26T17:57:48.369Z,1.00
2022-07-26T18:00:18.577Z,1.00
2022-07-26T18:02:46.846Z,1.00
2022-07-26T18:05:18.218Z,1.00
2022-07-26T18:07:46.666Z,1.00
2022-07-26T18:10:15.425Z,1.00
2022-07-26T18:12:43.648Z,1.00
2022-07-26T18:15:12.426Z,1.00
2022-07-26T18:17:40.693Z,1.00
2022-07-26T18:20:10.674Z,1.00
2022-07-26T18:22:40.600Z,1.00
2022-07-26T18:25:09.853Z,1.00
2022-07-26T18:27:38.090Z,1.00
2022-07-26T18:30:07.809Z,1.00
2022-07-26T18:32:36.060Z,1.00
2022-07-26T18:35:05.973Z,1.00
2022-07-26T18:37:34.451Z,1.00
2022-07-26T18:40:04.697Z,1.00
2022-07-26T18:42:32.956Z,1.00
2022-07-26T18:45:01.202Z,1.00
2022-07-26T18:47:29.466Z,1.00
2022-07-26T18:49:57.702Z,1.00
2022-07-26T18:52:28.379Z,1.00
2022-07-26T18:55:00.196Z,1.00
2022-07-26T18:57:29.824Z,1.00
2022-07-26T18:59:58.087Z,1.00
2022-07-26T19:02:26.352Z,1.00
2022-07-26T19:04:54.714Z,1.00
2022-07-26T19:07:22.941Z,1.00
2022-07-26T19:09:56.364Z,1.00
2022-07-26T19:12:27.259Z,1.00
2022-07-26T19:14:56.852Z,1.00
2022-07-26T19:17:25.082Z,1.00
2022-07-26T19:19:53.387Z,1.00
2022-07-26T19:22:22.666Z,1.00
2022-07-26T19:24:50.981Z,1.00
2022-07-26T19:27:19.297Z,1.00
2022-07-26T19:29:48.675Z,1.00
2022-07-26T19:32:18.333Z,1.00
2022-07-26T19:34:46.550Z,1.00
2022-07-26T19:37:19.776Z,1.00
2022-07-26T19:39:48.492Z,1.00
2022-07-26T19:42:16.727Z,1.00
2022-07-26T19:44:45.673Z,1.00
2022-07-26T19:47:14.179Z,1.00
2022-07-26T19:49:43.795Z,1.00
2022-07-26T19:52:12.139Z,1.00
2022-07-26T19:54:40.622Z,1.00
2022-07-26T19:57:08.986Z,1.00
2022-07-26T19:59:37.210Z,1.00
2022-07-26T20:02:06.227Z,1.00
2022-07-26T20:04:34.529Z,1.00
2022-07-26T20:07:04.379Z,1.00
2022-07-26T20:09:32.618Z,1.00
2022-07-26T20:12:00.930Z,1.00
2022-07-26T20:14:29.212Z,1.00
2022-07-26T20:16:58.172Z,1.00
2022-07-26T20:19:28.072Z,1.00
2022-07-26T20:21:56.466Z,1.00
2022-07-26T20:24:26.189Z,1.00
2022-07-26T20:26:54.475Z,1.00
2022-07-26T20:29:22.751Z,1.00
2022-07-26T20:31:50.965Z,1.00
2022-07-26T20:34:19.192Z,1.00
2022-07-26T20:36:47.665Z,1.00
2022-07-26T20:39:15.877Z,1.00
2022-07-26T20:41:45.399Z,1.00
2022-07-26T20:44:14.320Z,1.00
2022-07-26T20:46:42.645Z,1.00
2022-07-26T20:49:11.471Z,1.00
2022-07-26T20:51:39.917Z,1.00
2022-07-26T20:54:08.621Z,1.00
2022-07-26T20:56:37.206Z,1.00
2022-07-26T20:59:06.831Z,1.00
2022-07-26T21:01:35.209Z,1.00
2022-07-26T21:04:03.677Z,1.00
2022-07-26T21:06:33.186Z,1.00
2022-07-26T21:09:09.023Z,1.00
2022-07-26T21:11:39.285Z,1.00
2022-07-26T21:14:08.894Z,1.00
2022-07-26T21:16:37.478Z,1.00
2022-07-26T21:19:05.797Z,1.00
2022-07-26T21:21:37.018Z,1.00
2022-07-26T21:24:06.505Z,1.00
2022-07-26T21:26:35.014Z,1.00
2022-07-26T21:29:03.201Z,1.00
2022-07-26T21:31:32.817Z,1.00
2022-07-26T21:34:01.134Z,1.00
2022-07-26T21:36:29.349Z,1.00
2022-07-26T21:38:59.459Z,1.00
2022-07-26T21:41:28.087Z,1.00
2022-07-26T21:43:56.367Z,1.00
2022-07-26T21:46:24.656Z,1.00
2022-07-26T21:48:54.362Z,1.00
2022-07-26T21:51:22.647Z,1.00
2022-07-26T21:53:50.900Z,1.00
2022-07-26T21:56:19.142Z,1.00
2022-07-26T21:58:47.427Z,1.00
2022-07-26T22:01:15.788Z,1.00
2022-07-26T22:03:44.198Z,1.00
2022-07-26T22:06:13.779Z,1.00
2022-07-26T22:08:42.021Z,1.00
2022-07-26T22:11:10.296Z,1.00
2022-07-26T22:13:38.681Z,1.00
2022-07-26T22:16:07.411Z,1.00
2022-07-26T22:18:35.691Z,1.00
2022-07-26T22:21:03.925Z,1.00
2022-07-26T22:23:33.550Z,1.00
2022-07-26T22:26:03.187Z,1.00
2022-07-26T22:28:31.671Z,1.00
2022-07-26T22:31:00.092Z,1.00
2022-07-26T22:33:28.303Z,1.00
2022-07-26T22:35:56.505Z,1.00
2022-07-26T22:38:24.782Z,1.00
2022-07-26T22:40:54.402Z,1.00
2022-07-26T22:43:22.645Z,1.00
2022-07-26T22:45:50.915Z,1.00
2022-07-26T22:48:19.152Z,1.00
2022-07-26T22:50:47.437Z,1.00
2022-07-26T22:53:16.368Z,1.00
2022-07-26T22:55:44.562Z,1.00
2022-07-26T22:58:14.283Z,1.00
2022-07-26T23:00:42.676Z,1.00
2022-07-26T23:03:20.228Z,1.00
2022-07-26T23:05:50.556Z,1.00
2022-07-26T23:11:08.841Z,1.00
2022-07-26T23:13:38.420Z,1.00
2022-07-26T23:16:06.943Z,1.00
2022-07-26T23:18:35.482Z,1.00
2022-07-26T23:21:04.201Z,1.00
2022-07-26T23:23:32.617Z,1.00
2022-07-26T23:26:01.048Z,1.00
2022-07-26T23:28:35.599Z,1.00
2022-07-26T23:31:08.852Z,1.00
2022-07-26T23:33:52.017Z,1.00
2022-07-26T23:36:26.660Z,1.00
2022-07-26T23:38:55.097Z,1.00
2022-07-26T23:41:23.443Z,1.00
2022-07-26T23:43:51.779Z,1.00
2022-07-26T23:46:21.440Z,1.00
2022-07-26T23:48:49.863Z,1.00
2022-07-26T23:51:19.537Z,1.00
2022-07-26T23:53:47.863Z,1.00
2022-07-26T23:56:16.134Z,1.00
2022-07-26T23:58:45.334Z,1.00
